Time;durP1;ratioP1;P1;durP2;ratioP2;P2;SDS_P1;SDS_P2;PMS_P1;PMS_P2;Temp;Humidity;BMP_temperature;BMP_pressure;BME280_temperature;BME280_humidity;BME280_pressure;Samples;Min_cycle;Max_cycle;Signal;HPM_P1;HPM_P2
2021/10/18 00:00:58;;;;;;;17.83;12.13;;;;;;;13.53;65.62;102226.94;4958690;28;20164;-69
2021/10/18 00:03:24;;;;;;;21.13;11.93;;;;;;;13.52;65.58;102228.66;4961842;28;20137;-70
2021/10/18 00:05:49;;;;;;;18.98;12.50;;;;;;;13.54;65.46;102226.09;4954350;28;20073;-70
2021/10/18 00:08:14;;;;;;;19.20;11.73;;;;;;;13.58;65.10;102234.06;4956994;28;20042;-70
2021/10/18 00:10:40;;;;;;;18.05;11.60;;;;;;;13.56;65.28;102227.00;4947657;28;20139;-70
2021/10/18 00:13:05;;;;;;;21.30;12.02;;;;;;;13.48;66.06;102226.81;4951936;28;20176;-70
2021/10/18 00:15:32;;;;;;;18.65;12.75;;;;;;;13.48;66.10;102233.81;4952239;28;20047;-68
2021/10/18 00:17:59;;;;;;;23.27;11.90;;;;;;;13.48;66.04;102239.91;4949757;28;20057;-69
2021/10/18 00:20:25;;;;;;;21.23;12.77;;;;;;;13.44;66.75;102240.69;4954832;28;20520;-69
2021/10/18 00:22:51;;;;;;;20.95;13.35;;;;;;;13.43;66.23;102240.66;4952676;28;20418;-69
2021/10/18 00:25:17;;;;;;;17.48;11.57;;;;;;;13.45;66.22;102244.22;4936577;28;20042;-69
2021/10/18 00:27:43;;;;;;;19.77;11.95;;;;;;;13.42;66.50;102242.38;4943245;28;20034;-70
2021/10/18 00:30:08;;;;;;;19.17;11.30;;;;;;;13.42;66.12;102241.53;4954638;28;20070;-69
2021/10/18 00:32:34;;;;;;;19.15;12.00;;;;;;;13.41;66.01;102243.25;4953305;28;20183;-68
2021/10/18 00:34:59;;;;;;;22.00;11.77;;;;;;;13.40;66.72;102245.00;4947469;28;20092;-68
2021/10/18 00:37:25;;;;;;;19.38;12.75;;;;;;;13.38;66.67;102237.94;4950811;28;20047;-68
2021/10/18 00:39:51;;;;;;;18.33;11.23;;;;;;;13.41;66.23;102251.13;4950396;28;20057;-69
2021/10/18 00:42:16;;;;;;;20.25;11.98;;;;;;;13.40;66.35;102247.63;4946025;28;20775;-68
2021/10/18 00:44:42;;;;;;;22.50;11.77;;;;;;;13.40;66.04;102252.84;4955531;28;20920;-69
2021/10/18 00:47:08;;;;;;;20.45;12.15;;;;;;;13.40;66.29;102245.00;4950101;28;20083;-69
2021/10/18 00:49:34;;;;;;;21.95;12.90;;;;;;;13.39;66.34;102250.19;4938192;28;20046;-69
2021/10/18 00:51:59;;;;;;;22.60;12.80;;;;;;;13.36;66.59;102248.38;4942655;28;20053;-69
2021/10/18 00:54:25;;;;;;;22.30;12.65;;;;;;;13.33;66.26;102253.56;4948708;28;20050;-69
2021/10/18 00:56:50;;;;;;;21.98;12.82;;;;;;;13.32;66.35;102256.13;4945373;28;20051;-70
2021/10/18 00:59:16;;;;;;;20.30;12.75;;;;;;;13.31;66.86;102252.63;4948393;28;20208;-69
2021/10/18 01:01:42;;;;;;;20.50;12.93;;;;;;;13.27;66.65;102239.41;4922109;28;20126;-69
2021/10/18 01:04:09;;;;;;;20.10;12.45;;;;;;;13.27;66.05;102239.41;4949987;28;20387;-69
2021/10/18 01:06:35;;;;;;;20.85;11.57;;;;;;;13.19;66.81;102239.22;4929779;28;20586;-69
2021/10/18 01:09:00;;;;;;;19.60;12.52;;;;;;;13.15;66.84;102237.38;4934586;28;20038;-69
2021/10/18 01:11:26;;;;;;;20.10;12.68;;;;;;;13.12;67.00;102242.53;4947408;28;20034;-68
2021/10/18 01:13:53;;;;;;;21.58;13.18;;;;;;;13.03;67.16;102247.53;4945073;28;20606;-69
2021/10/18 01:16:19;;;;;;;20.52;12.50;;;;;;;13.05;66.84;102244.97;4943921;28;20050;-69
2021/10/18 01:18:44;;;;;;;20.25;12.57;;;;;;;13.05;66.86;102247.56;4926817;28;20057;-68
2021/10/18 01:21:10;;;;;;;18.85;12.07;;;;;;;13.04;66.89;102248.41;4951180;28;20054;-68
2021/10/18 01:23:35;;;;;;;20.70;13.13;;;;;;;12.95;67.02;102239.47;4942870;28;20090;-68
2021/10/18 01:26:00;;;;;;;20.00;13.10;;;;;;;12.87;67.71;102234.88;4940372;28;20488;-69
2021/10/18 01:28:26;;;;;;;22.98;12.57;;;;;;;12.87;67.51;102232.25;4947478;28;20518;-69
2021/10/18 01:30:52;;;;;;;19.05;11.68;;;;;;;12.87;66.94;102229.63;4948823;28;20074;-69
2021/10/18 01:33:17;;;;;;;19.98;10.95;;;;;;;12.77;66.76;102238.13;4946948;28;20038;-69
2021/10/18 01:35:42;;;;;;;21.33;12.20;;;;;;;12.72;67.26;102234.50;4934063;28;20662;-68
2021/10/18 01:38:08;;;;;;;20.60;11.82;;;;;;;12.66;67.56;102229.09;4954631;28;20632;-70
2021/10/18 01:40:33;;;;;;;18.92;11.77;;;;;;;12.55;67.82;102226.22;4948399;28;20038;-68
2021/10/18 01:42:59;;;;;;;19.25;11.95;;;;;;;12.46;68.12;102215.47;4947825;28;20101;-68
2021/10/18 01:45:25;;;;;;;20.73;11.50;;;;;;;12.36;69.07;102208.25;4946487;28;20387;-68
2021/10/18 01:47:50;;;;;;;17.70;10.70;;;;;;;12.33;68.63;102205.53;4939438;28;20038;-68
2021/10/18 01:50:20;;;;;;;19.50;11.95;;;;;;;12.27;68.91;102205.34;4958353;28;20046;-68
2021/10/18 01:52:47;;;;;;;19.13;11.23;;;;;;;12.26;68.89;102207.09;4952265;28;20043;-68
2021/10/18 01:55:13;;;;;;;17.23;11.43;;;;;;;12.20;68.94;102210.41;4932198;28;20115;-68
2021/10/18 01:57:38;;;;;;;18.48;11.82;;;;;;;12.19;68.92;102213.91;4931248;28;21620;-67
2021/10/18 02:00:05;;;;;;;19.67;11.93;;;;;;;12.15;69.43;102209.41;4941653;28;20038;-68
2021/10/18 02:02:30;;;;;;;20.77;12.60;;;;;;;12.08;69.98;102217.03;4939760;28;20034;-68
2021/10/18 02:04:56;;;;;;;19.90;11.77;;;;;;;12.05;69.77;102214.34;4949572;28;20375;-68
2021/10/18 02:07:21;;;;;;;21.40;13.10;;;;;;;12.01;70.17;102216.00;4940552;28;20362;-68
2021/10/18 02:09:46;;;;;;;20.85;12.23;;;;;;;11.98;70.03;102217.63;4924100;28;20049;-68
2021/10/18 02:12:12;;;;;;;19.15;11.32;;;;;;;11.93;69.71;102214.00;4947243;28;20077;-68
2021/10/18 02:14:37;;;;;;;20.75;12.07;;;;;;;11.91;69.55;102215.66;4942132;28;20042;-67
2021/10/18 02:17:02;;;;;;;20.35;12.07;;;;;;;11.90;69.29;102206.94;4940295;28;20144;-68
2021/10/18 02:19:28;;;;;;;17.77;11.85;;;;;;;11.84;70.08;102209.38;4929287;28;20097;-68
2021/10/18 02:21:53;;;;;;;20.25;11.82;;;;;;;11.80;70.41;102207.50;4939181;28;20419;-68
2021/10/18 02:24:19;;;;;;;20.00;11.73;;;;;;;11.73;70.23;102209.06;4936901;28;20569;-68
2021/10/18 02:26:44;;;;;;;19.00;12.18;;;;;;;11.69;70.22;102214.13;4950774;28;20056;-68
2021/10/18 02:29:09;;;;;;;17.33;9.95;;;;;;;11.63;70.05;102208.72;4934737;28;20043;-68
2021/10/18 02:31:36;;;;;;;18.85;11.55;;;;;;;11.58;70.83;102212.91;4933116;28;20030;-69
2021/10/18 02:34:02;;;;;;;19.65;12.65;;;;;;;11.51;71.16;102205.72;4943368;28;20116;-68
2021/10/18 02:36:28;;;;;;;19.05;11.82;;;;;;;11.48;71.18;102195.16;4944935;28;20130;-68
2021/10/18 02:38:53;;;;;;;19.17;11.57;;;;;;;11.42;71.00;102194.97;4945641;28;20491;-68
2021/10/18 02:41:18;;;;;;;20.10;12.30;;;;;;;11.37;71.45;102195.75;4955347;28;20042;-68
2021/10/18 02:43:44;;;;;;;19.38;12.02;;;;;;;11.34;71.50;102189.56;4938046;28;20271;-68
2021/10/18 02:46:09;;;;;;;18.05;11.30;;;;;;;11.29;71.74;102185.88;4932495;28;20053;-68
2021/10/18 02:48:34;;;;;;;19.83;12.35;;;;;;;11.28;71.50;102191.97;4955109;28;20491;-69
2021/10/18 02:51:00;;;;;;;20.02;11.52;;;;;;;11.25;71.94;102190.13;4944322;28;20121;-68
2021/10/18 02:53:25;;;;;;;20.83;11.85;;;;;;;11.21;71.44;102187.38;4951017;28;20819;-67
2021/10/18 02:55:50;;;;;;;24.73;13.18;;;;;;;11.25;71.86;102197.06;4939510;28;20042;-68
2021/10/18 02:58:16;;;;;;;19.95;13.00;;;;;;;11.27;71.47;102200.63;4947544;28;20127;-67
2021/10/18 03:00:41;;;;;;;21.10;12.55;;;;;;;11.25;71.69;102203.19;4948848;28;20410;-67
2021/10/18 03:03:07;;;;;;;19.98;13.07;;;;;;;11.26;71.23;102204.97;4949926;28;20089;-68
2021/10/18 03:05:34;;;;;;;19.05;12.32;;;;;;;11.24;71.57;102206.63;4941510;28;20066;-68
2021/10/18 03:07:59;;;;;;;26.98;14.32;;;;;;;11.15;72.42;102210.69;4947403;28;20045;-68
2021/10/18 03:10:25;;;;;;;23.88;14.38;;;;;;;11.15;72.02;102203.75;4949044;28;20046;-68
2021/10/18 03:12:50;;;;;;;23.23;13.40;;;;;;;11.14;72.15;102209.78;4920651;28;20784;-67
2021/10/18 03:15:16;;;;;;;28.70;14.45;;;;;;;11.08;72.52;102199.16;4944339;28;20461;-68
2021/10/18 03:17:41;;;;;;;23.95;13.77;;;;;;;11.04;72.87;102204.22;4935079;28;20383;-68
2021/10/18 03:20:08;;;;;;;23.08;14.00;;;;;;;11.00;72.91;102208.44;4951653;28;20045;-68
2021/10/18 03:22:35;;;;;;;20.73;13.02;;;;;;;10.97;72.58;102205.75;4935218;28;20038;-68
2021/10/18 03:25:00;;;;;;;21.85;12.95;;;;;;;10.94;72.58;102216.06;4953228;28;20109;-68
2021/10/18 03:27:26;;;;;;;23.00;12.90;;;;;;;10.92;72.33;102212.50;4938664;28;20131;-68
2021/10/18 03:29:51;;;;;;;21.55;13.38;;;;;;;10.89;72.61;102213.31;4936410;28;20918;-68
2021/10/18 03:32:17;;;;;;;25.42;14.45;;;;;;;10.86;72.95;102207.97;4948311;28;20506;-68
2021/10/18 03:34:42;;;;;;;22.38;13.77;;;;;;;10.85;73.22;102205.34;4945668;28;20046;-68
2021/10/18 03:37:07;;;;;;;23.77;13.90;;;;;;;10.88;72.52;102210.66;4946683;28;20346;-68
2021/10/18 03:39:34;;;;;;;27.38;15.77;;;;;;;10.84;72.96;102204.47;4948438;28;20042;-68
2021/10/18 03:41:59;;;;;;;27.85;16.20;;;;;;;10.85;73.22;102202.75;4942635;28;20046;-68
2021/10/18 03:44:25;;;;;;;24.48;14.88;;;;;;;10.84;73.29;102201.84;4954130;28;20049;-68
2021/10/18 03:46:50;;;;;;;30.33;16.88;;;;;;;10.87;73.41;102206.25;4953084;28;20053;-68
2021/10/18 03:49:15;;;;;;;25.08;15.60;;;;;;;10.88;72.88;102211.53;4956707;28;20042;-68
2021/10/18 03:51:41;;;;;;;26.67;15.73;;;;;;;10.88;73.14;102213.25;4941151;28;20030;-68
2021/10/18 03:54:06;;;;;;;26.23;14.27;;;;;;;10.85;72.62;102211.47;4953559;28;20038;-68
2021/10/18 03:56:31;;;;;;;24.77;14.35;;;;;;;10.82;72.89;102210.44;4945275;28;20081;-68
2021/10/18 03:58:57;;;;;;;23.75;14.40;;;;;;;10.81;73.05;102213.88;4949158;28;20076;-67
2021/10/18 04:01:22;;;;;;;28.10;15.00;;;;;;;10.80;73.16;102218.22;4947692;28;20423;-68
2021/10/18 04:03:48;;;;;;;25.70;15.20;;;;;;;10.78;73.24;102225.13;4943181;28;20164;-68
2021/10/18 04:06:13;;;;;;;26.83;15.95;;;;;;;10.79;73.36;102218.19;4948578;28;20121;-68
2021/10/18 04:08:39;;;;;;;22.45;14.15;;;;;;;10.81;72.94;102220.00;4953411;28;20389;-68
2021/10/18 04:11:05;;;;;;;28.02;15.88;;;;;;;10.78;72.69;102212.09;4947697;28;20104;-68
2021/10/18 04:13:30;;;;;;;28.13;16.13;;;;;;;10.75;73.00;102214.56;4946780;28;20591;-70
2021/10/18 04:15:56;;;;;;;25.83;15.90;;;;;;;10.73;72.94;102213.66;4941282;28;20057;-68
2021/10/18 04:18:21;;;;;;;26.70;15.98;;;;;;;10.73;73.17;102211.03;4938083;28;20199;-67
2021/10/18 04:20:47;;;;;;;29.60;17.38;;;;;;;10.71;73.02;102210.09;4957078;28;20491;-68
2021/10/18 04:23:12;;;;;;;26.60;16.55;;;;;;;10.81;73.10;102211.28;4946970;28;20081;-68
2021/10/18 04:25:38;;;;;;;29.10;16.33;;;;;;;10.81;72.79;102213.88;4946878;28;20054;-66
2021/10/18 04:28:03;;;;;;;28.30;16.90;;;;;;;10.77;72.64;102206.81;4949869;28;20474;-68
2021/10/18 04:30:29;;;;;;;28.35;17.15;;;;;;;10.78;72.95;102209.47;4931114;28;20038;-67
2021/10/18 04:32:55;;;;;;;27.60;16.17;;;;;;;10.80;72.84;102218.22;4945801;28;20042;-68
2021/10/18 04:35:21;;;;;;;28.90;16.08;;;;;;;10.81;72.33;102216.50;4946790;28;20073;-69
2021/10/18 04:37:46;;;;;;;25.45;15.20;;;;;;;10.78;72.47;102213.81;4937536;28;20491;-70
2021/10/18 04:40:12;;;;;;;27.92;17.17;;;;;;;10.71;72.46;102225.75;4944662;28;20046;-69
2021/10/18 04:42:37;;;;;;;29.33;15.90;;;;;;;10.70;72.39;102223.97;4954489;28;20034;-69
2021/10/18 04:45:04;;;;;;;26.77;14.93;;;;;;;10.66;72.84;102222.09;4940286;28;20043;-67
2021/10/18 04:47:30;;;;;;;22.98;14.55;;;;;;;10.63;72.62;102226.31;4936629;28;20046;-69
2021/10/18 04:49:55;;;;;;;25.05;14.52;;;;;;;10.60;72.97;102223.59;4952753;28;20049;-68
2021/10/18 04:52:20;;;;;;;28.45;15.20;;;;;;;10.56;73.08;102231.31;4957133;28;20094;-69
2021/10/18 04:54:46;;;;;;;24.67;13.68;;;;;;;10.56;72.64;102236.53;4964193;28;20373;-68
2021/10/18 04:57:11;;;;;;;29.08;15.50;;;;;;;10.54;72.97;102232.09;4932270;28;20559;-68
2021/10/18 04:59:36;;;;;;;29.67;17.55;;;;;;;10.51;73.08;102234.59;4946328;28;20073;-69
2021/10/18 05:02:02;;;;;;;33.10;17.20;;;;;;;10.57;73.07;102225.25;4947257;28;20056;-69
2021/10/18 05:04:27;;;;;;;31.70;18.38;;;;;;;10.56;73.11;102225.19;4953356;28;20318;-69
2021/10/18 05:06:53;;;;;;;28.60;16.55;;;;;;;10.53;73.10;102232.94;4950808;28;20515;-69
2021/10/18 05:09:18;;;;;;;29.50;16.45;;;;;;;10.50;72.88;102228.47;4950816;28;20045;-69
2021/10/18 05:11:43;;;;;;;30.40;17.23;;;;;;;10.45;73.34;102230.03;4946725;28;20054;-68
2021/10/18 05:14:09;;;;;;;31.98;17.20;;;;;;;10.46;73.26;102221.41;4945475;28;20566;-68
2021/10/18 05:16:34;;;;;;;28.85;16.63;;;;;;;10.43;73.03;102228.25;4950931;28;20403;-68
2021/10/18 05:19:00;;;;;;;30.58;17.10;;;;;;;10.39;73.71;102229.81;4951623;28;20086;-68
2021/10/18 05:21:26;;;;;;;33.60;18.52;;;;;;;10.45;73.44;102234.38;4937192;28;20193;-68
2021/10/18 05:23:51;;;;;;;29.23;16.58;;;;;;;10.41;73.29;102241.22;4945674;28;20030;-68
2021/10/18 05:26:17;;;;;;;32.75;16.20;;;;;;;10.43;73.05;102249.94;4931701;28;20043;-68
2021/10/18 05:28:42;;;;;;;25.58;14.93;;;;;;;10.41;73.37;102254.25;4942552;28;20123;-68
2021/10/18 05:31:07;;;;;;;28.67;16.10;;;;;;;10.38;73.20;102245.41;4929648;28;20041;-68
2021/10/18 05:33:34;;;;;;;28.65;15.95;;;;;;;10.38;73.41;102248.91;4943956;28;20403;-68
2021/10/18 05:35:59;;;;;;;33.65;17.90;;;;;;;10.34;73.74;102244.44;4935384;28;20044;-68
2021/10/18 05:38:24;;;;;;;34.22;19.40;;;;;;;10.29;74.08;102239.88;4951685;28;20058;-68
2021/10/18 05:40:52;;;;;;;32.50;19.70;;;;;;;10.31;74.27;102238.19;4937931;28;20049;-69
2021/10/18 05:43:18;;;;;;;40.35;20.98;;;;;;;10.29;74.64;102240.78;4947494;28;20100;-69
2021/10/18 05:45:44;;;;;;;38.22;20.73;;;;;;;10.35;74.34;102233.16;4929989;28;20054;-68
2021/10/18 05:48:11;;;;;;;36.30;19.90;;;;;;;10.38;74.46;102235.88;4933767;28;20379;-69
2021/10/18 05:50:40;;;;;;;34.97;20.40;;;;;;;10.43;74.09;102231.69;4951807;28;20035;-67
2021/10/18 05:53:06;;;;;;;34.50;20.08;;;;;;;10.50;73.52;102233.69;4949439;28;20034;-67
2021/10/18 05:55:33;;;;;;;34.28;19.92;;;;;;;10.46;73.85;102234.44;4930803;28;20050;-67
2021/10/18 05:58:02;;;;;;;33.58;20.50;;;;;;;10.50;73.64;102235.41;4922813;28;20915;-67
2021/10/18 06:00:27;;;;;;;35.63;20.13;;;;;;;10.54;73.94;102229.50;4925614;28;20226;-69
2021/10/18 06:02:53;;;;;;;38.72;20.75;;;;;;;10.50;73.72;102228.47;4954404;28;20068;-68
2021/10/18 06:05:19;;;;;;;36.00;20.63;;;;;;;10.58;73.37;102220.94;4930187;28;20506;-69
2021/10/18 06:07:45;;;;;;;36.20;20.08;;;;;;;10.55;73.74;102226.06;4940356;28;20211;-69
2021/10/18 06:10:12;;;;;;;36.97;20.40;;;;;;;10.57;73.49;102230.47;4941291;28;20522;-69
2021/10/18 06:12:39;;;;;;;35.75;20.60;;;;;;;10.55;73.70;102232.13;4940708;28;20490;-68
2021/10/18 06:15:05;;;;;;;34.45;19.92;;;;;;;10.53;73.49;102232.94;4948589;28;20467;-70
2021/10/18 06:17:30;;;;;;;35.95;20.25;;;;;;;10.52;73.79;102238.97;4924075;28;20245;-69
2021/10/18 06:19:56;;;;;;;42.50;20.27;;;;;;;10.54;73.58;102240.81;4938958;28;20262;-69
2021/10/18 06:22:21;;;;;;;37.92;20.20;;;;;;;10.57;73.93;102245.22;4938447;28;20038;-69
2021/10/18 06:24:49;;;;;;;39.33;21.15;;;;;;;10.55;73.62;102239.09;4948518;28;20337;-69
2021/10/18 06:27:14;;;;;;;39.33;21.23;;;;;;;10.56;74.44;102233.91;4928922;28;20073;-69
2021/10/18 06:29:39;;;;;;;35.90;20.88;;;;;;;10.62;73.95;102233.22;4909292;28;20121;-69
2021/10/18 06:32:07;;;;;;;34.75;20.98;;;;;;;10.70;73.21;102234.41;4941693;28;20628;-69
2021/10/18 06:34:33;;;;;;;36.67;19.58;;;;;;;10.76;73.12;102242.44;4920500;28;20372;-70
2021/10/18 06:36:59;;;;;;;34.15;20.08;;;;;;;10.84;72.97;102250.53;4916243;28;20052;-69
2021/10/18 06:39:24;;;;;;;35.00;19.30;;;;;;;10.93;72.58;102251.72;4931343;28;21908;-70
2021/10/18 06:41:50;;;;;;;35.33;20.38;;;;;;;10.94;72.60;102243.06;4918202;28;20551;-69
2021/10/18 06:44:15;;;;;;;39.08;20.85;;;;;;;11.03;72.65;102241.59;4930818;28;20050;-69
2021/10/18 06:46:41;;;;;;;37.22;19.85;;;;;;;11.09;72.48;102242.69;4927875;28;20951;-70
2021/10/18 06:49:06;;;;;;;32.85;19.88;;;;;;;11.14;71.88;102248.94;4924321;28;20141;-70
2021/10/18 06:51:37;;;;;;;33.45;20.10;;;;;;;11.16;71.83;102249.84;4936035;28;20544;-69
2021/10/18 06:54:04;;;;;;;35.42;20.20;;;;;;;11.18;71.87;102257.75;4928086;28;20520;-70
2021/10/18 06:56:29;;;;;;;35.95;19.40;;;;;;;11.31;71.17;102255.59;4921233;28;20070;-70
2021/10/18 06:58:55;;;;;;;38.10;19.88;;;;;;;11.26;71.66;102244.13;4924859;28;20193;-70
2021/10/18 07:01:20;;;;;;;38.75;20.30;;;;;;;11.30;71.47;102247.69;4927974;28;20085;-71
2021/10/18 07:03:45;;;;;;;36.20;19.77;;;;;;;11.42;71.24;102242.88;4911087;28;20042;-70
2021/10/18 07:06:11;;;;;;;34.92;19.88;;;;;;;11.46;70.83;102254.31;4927052;28;20134;-70
2021/10/18 07:08:36;;;;;;;35.08;19.67;;;;;;;11.51;70.94;102253.63;4933106;28;20046;-69
2021/10/18 07:11:01;;;;;;;35.85;19.98;;;;;;;11.56;70.51;102262.50;4930936;28;20154;-70
2021/10/18 07:13:27;;;;;;;32.30;19.63;;;;;;;11.64;70.00;102276.69;4915312;28;20444;-67
2021/10/18 07:15:52;;;;;;;34.00;18.90;;;;;;;11.73;69.76;102274.38;4910711;28;20420;-71
2021/10/18 07:18:17;;;;;;;33.28;19.80;;;;;;;11.85;69.37;102281.69;4914464;28;20089;-70
2021/10/18 07:20:43;;;;;;;34.58;19.75;;;;;;;11.86;68.87;102283.47;4921596;28;20688;-71
2021/10/18 07:23:10;;;;;;;35.55;20.02;;;;;;;11.89;68.98;102283.59;4925447;28;20141;-69
2021/10/18 07:25:38;;;;;;;35.40;20.45;;;;;;;12.03;68.51;102283.97;4930449;28;20052;-70
2021/10/18 07:28:05;;;;;;;33.08;18.92;;;;;;;12.19;68.36;102286.22;4929817;28;20539;-69
2021/10/18 07:30:31;;;;;;;33.53;19.58;;;;;;;12.22;68.56;102285.41;4949101;28;20105;-69
2021/10/18 07:32:56;;;;;;;35.72;20.33;;;;;;;12.27;68.19;102283.81;4950644;28;20499;-69
2021/10/18 07:35:27;;;;;;;31.95;19.17;;;;;;;12.36;67.91;102286.69;4950280;28;20045;-69
2021/10/18 07:37:58;;;;;;;34.55;19.58;;;;;;;12.40;68.00;102286.81;4938818;28;20088;-69
2021/10/18 07:40:23;;;;;;;33.58;19.55;;;;;;;12.51;66.55;102293.22;4938930;28;20035;-69
2021/10/18 07:42:49;;;;;;;34.60;19.48;;;;;;;12.53;66.26;102288.06;4960706;28;20127;-70
2021/10/18 07:45:14;;;;;;;33.35;19.15;;;;;;;12.64;66.80;102293.56;4946734;28;20038;-69
2021/10/18 07:47:41;;;;;;;32.30;19.55;;;;;;;12.68;66.60;102293.72;4942284;28;20054;-70
2021/10/18 07:50:10;;;;;;;37.30;19.83;;;;;;;12.71;66.26;102288.56;4955574;28;20045;-70
2021/10/18 07:52:36;;;;;;;33.55;19.85;;;;;;;12.84;65.51;102289.78;4949258;28;20057;-72
2021/10/18 07:55:03;;;;;;;30.42;19.70;;;;;;;12.85;66.18;102297.69;4941857;28;20050;-69
2021/10/18 07:57:29;;;;;;;33.88;19.38;;;;;;;12.92;65.72;102283.91;4946508;28;20105;-68
2021/10/18 07:59:54;;;;;;;35.75;20.40;;;;;;;12.86;66.71;102294.22;4933748;28;20181;-70
2021/10/18 08:02:20;;;;;;;35.72;20.92;;;;;;;13.01;67.34;102284.13;4950486;28;20306;-70
2021/10/18 08:04:45;;;;;;;32.35;19.55;;;;;;;13.09;65.99;102281.72;4931310;28;20056;-70
2021/10/18 08:07:10;;;;;;;29.02;18.58;;;;;;;13.27;65.13;102289.19;4945950;28;20046;-70
2021/10/18 08:09:36;;;;;;;32.47;19.60;;;;;;;13.20;65.09;102277.66;4940793;28;20046;-70
2021/10/18 08:12:02;;;;;;;32.17;18.55;;;;;;;13.26;64.51;102282.16;4947672;28;20145;-70
2021/10/18 08:14:27;;;;;;;31.80;19.00;;;;;;;13.35;64.52;102279.78;4928158;28;20038;-71
2021/10/18 08:16:52;;;;;;;33.75;19.42;;;;;;;13.34;64.18;102286.75;4946455;28;20038;-71
2021/10/18 08:19:18;;;;;;;35.75;19.13;;;;;;;13.41;64.32;102277.31;4954995;28;20065;-71
2021/10/18 08:21:43;;;;;;;31.45;18.85;;;;;;;13.36;65.17;102274.56;4939208;28;20054;-70
2021/10/18 08:24:08;;;;;;;31.05;18.75;;;;;;;13.34;64.47;102271.03;4955800;28;20042;-70
2021/10/18 08:26:34;;;;;;;35.38;19.20;;;;;;;13.27;66.34;102271.72;4918824;28;20120;-71
2021/10/18 08:28:59;;;;;;;34.78;19.45;;;;;;;13.16;65.58;102274.94;4957497;28;20034;-70
2021/10/18 08:31:25;;;;;;;33.17;19.10;;;;;;;13.12;64.74;102270.41;4949474;28;20043;-70
2021/10/18 08:33:50;;;;;;;32.63;18.75;;;;;;;13.11;64.87;102266.94;4946552;28;20105;-70
2021/10/18 08:36:16;;;;;;;37.72;18.35;;;;;;;13.08;64.78;102272.09;4957081;28;20034;-71
2021/10/18 08:41:14;;;;;;;31.52;17.50;;;;;;;13.23;65.19;102267.28;4940393;28;20038;-70
2021/10/18 08:46:06;;;;;;;29.77;17.55;;;;;;;13.83;63.56;102248.59;4958929;28;20602;-71
2021/10/18 08:48:32;;;;;;;30.35;17.45;;;;;;;14.30;62.77;102251.31;4950576;28;20510;-71
2021/10/18 08:50:58;;;;;;;28.33;17.83;;;;;;;14.47;60.98;102250.81;4926540;28;20660;-70
2021/10/18 08:53:24;;;;;;;28.40;17.83;;;;;;;14.54;62.08;102236.06;4936705;28;20054;-69
2021/10/18 08:55:49;;;;;;;29.67;17.92;;;;;;;14.80;60.49;102239.19;4926139;28;20398;-71
2021/10/18 08:58:15;;;;;;;34.15;18.52;;;;;;;14.63;60.06;102236.25;4947332;28;20397;-70
2021/10/18 09:00:51;;;;;;;28.52;17.00;;;;;;;14.57;60.41;102239.66;4933148;28;20057;-70
2021/10/18 09:03:22;;;;;;;30.38;18.35;;;;;;;14.52;61.65;102243.91;4933095;28;20074;-69
2021/10/18 09:05:47;;;;;;;31.15;18.38;;;;;;;14.50;61.33;102240.41;4922588;28;20472;-69
2021/10/18 09:08:32;;;;;;;30.45;18.30;;;;;;;14.35;61.58;102233.91;4932321;28;20157;-70
2021/10/18 09:11:12;;;;;;;29.10;17.90;;;;;;;14.37;61.83;102233.13;4941344;28;20045;-70
2021/10/18 09:13:50;;;;;;;29.98;18.38;;;;;;;14.54;59.80;102215.97;4913693;28;20081;-64
2021/10/18 09:16:37;;;;;;;29.55;17.88;;;;;;;14.55;61.03;102214.22;4920759;28;20042;-70
2021/10/18 09:19:17;;;;;;;30.02;17.58;;;;;;;14.67;60.42;102208.31;4944277;28;20042;-70
2021/10/18 09:21:44;;;;;;;27.90;17.88;;;;;;;14.67;58.99;102213.56;4937887;28;20801;-69
2021/10/18 09:24:12;;;;;;;32.47;18.15;;;;;;;14.59;59.12;102223.91;4937993;28;20061;-70
2021/10/18 09:26:39;;;;;;;30.98;17.85;;;;;;;14.70;60.76;102213.63;4946170;28;20112;-68
2021/10/18 09:29:06;;;;;;;29.85;18.13;;;;;;;14.81;61.42;102225.19;4946830;28;20054;-69
2021/10/18 09:31:34;;;;;;;29.88;17.58;;;;;;;14.93;60.22;102228.94;4958823;28;20034;-69
2021/10/18 09:34:14;;;;;;;28.63;17.17;;;;;;;15.18;58.22;102242.47;4950394;28;20096;-70
2021/10/18 09:36:41;;;;;;;27.65;17.17;;;;;;;15.21;59.04;102240.75;4946121;28;20069;-69
2021/10/18 09:39:24;;;;;;;29.38;17.70;;;;;;;15.23;60.06;102238.16;4945658;28;20223;-69
2021/10/18 09:41:58;;;;;;;29.65;17.35;;;;;;;15.24;58.85;102229.44;4938758;28;20046;-69
2021/10/18 09:44:57;;;;;;;30.58;17.52;;;;;;;15.25;58.88;102224.16;4950219;28;20038;-69
2021/10/18 09:47:38;;;;;;;27.38;16.92;;;;;;;15.13;59.22;102221.34;4941390;28;20038;-70
2021/10/18 10:52:42;;;;;;;27.40;16.77;;;;;;;16.24;56.02;102165.03;4932263;28;20097;-68
2021/10/18 10:55:25;;;;;;;24.25;16.17;;;;;;;16.26;55.78;102170.34;4938122;28;20736;-69
2021/10/18 10:57:53;;;;;;;25.13;15.32;;;;;;;16.40;56.68;102155.56;4938446;28;20046;-69
2021/10/18 11:00:42;;;;;;;22.77;15.00;;;;;;;16.34;56.74;102143.25;4938654;28;20042;-69
2021/10/18 11:03:23;;;;;;;25.02;15.27;;;;;;;16.50;55.81;102139.88;4949293;28;20133;-69
2021/10/18 11:05:58;;;;;;;27.60;16.02;;;;;;;16.46;55.18;102137.22;4932560;28;21102;-70
2021/10/18 11:08:53;;;;;;;25.35;15.68;;;;;;;16.73;56.27;102139.22;4947781;28;20434;-70
2021/10/18 11:11:19;;;;;;;27.75;15.55;;;;;;;16.85;55.85;102141.94;4949501;28;20028;-69
2021/10/18 11:13:56;;;;;;;26.23;15.38;;;;;;;16.82;55.18;102140.19;4938557;28;20932;-69
2021/10/18 11:16:26;;;;;;;24.45;15.18;;;;;;;16.82;57.51;102141.94;4942087;28;20046;-71
2021/10/18 11:18:54;;;;;;;25.23;15.65;;;;;;;16.91;56.33;102128.81;4946766;28;20479;-70
2021/10/18 11:21:24;;;;;;;24.58;15.60;;;;;;;16.72;55.55;102132.19;4943489;28;20057;-69
2021/10/18 11:24:09;;;;;;;25.45;15.23;;;;;;;16.75;54.94;102138.38;4925553;28;20053;-69
2021/10/18 11:26:39;;;;;;;25.02;15.52;;;;;;;16.75;56.38;102140.13;4928279;28;20530;-70
2021/10/18 11:29:10;;;;;;;25.13;15.95;;;;;;;16.63;55.11;102123.34;4941562;28;20399;-70
2021/10/18 11:31:38;;;;;;;30.60;15.30;;;;;;;16.71;57.12;102112.84;4924079;28;20160;-70
2021/10/18 11:34:05;;;;;;;25.10;15.70;;;;;;;16.56;56.78;102104.81;4945266;28;20054;-70
2021/10/18 11:36:31;;;;;;;26.45;15.32;;;;;;;16.72;56.27;102100.56;4952523;28;20047;-70
2021/10/18 11:39:22;;;;;;;27.60;15.20;;;;;;;16.74;55.01;102106.75;4954040;28;20104;-71
2021/10/18 11:42:04;;;;;;;27.15;16.17;;;;;;;16.63;57.59;102091.75;4932024;28;20124;-70
2021/10/18 11:44:48;;;;;;;28.02;15.45;;;;;;;16.49;55.24;102089.84;4947456;28;20042;-69
2021/10/18 11:47:28;;;;;;;25.70;15.95;;;;;;;16.50;55.10;102081.97;4944298;28;20133;-69
2021/10/18 11:50:09;;;;;;;28.95;15.77;;;;;;;16.14;56.22;102086.91;4941512;28;20256;-71
2021/10/18 11:52:43;;;;;;;26.95;15.38;;;;;;;16.33;56.77;102078.31;4936754;28;20038;-70
2021/10/18 11:55:10;;;;;;;24.27;14.93;;;;;;;16.36;55.30;102064.28;4952162;28;20478;-69
2021/10/18 11:57:39;;;;;;;24.20;15.52;;;;;;;16.21;56.44;102059.78;4935020;28;20085;-70
2021/10/18 12:00:09;;;;;;;22.23;14.13;;;;;;;16.57;55.75;102061.84;4950253;28;20168;-70
2021/10/18 12:02:41;;;;;;;27.75;14.88;;;;;;;16.84;55.86;102074.31;4948301;28;20046;-70
2021/10/18 12:05:06;;;;;;;26.92;14.93;;;;;;;16.64;54.92;102082.13;4952447;28;20044;-70
2021/10/18 12:07:37;;;;;;;22.40;13.95;;;;;;;16.82;54.50;102087.50;4961126;28;20078;-70
2021/10/18 12:10:21;;;;;;;25.85;15.00;;;;;;;16.88;56.42;102082.28;4930396;28;20408;-70
2021/10/18 12:13:05;;;;;;;21.15;14.38;;;;;;;16.95;56.26;102076.19;4952117;28;20049;-70
2021/10/18 12:15:31;;;;;;;22.40;14.05;;;;;;;17.13;55.64;102082.44;4953775;28;20050;-70
2021/10/18 12:17:57;;;;;;;24.33;14.27;;;;;;;17.15;57.23;102083.31;4946340;28;20035;-70